Portada
METAR-TAF:

METAR-TAF

Aeroports :

Aeroport Internacional de Mitiga

Trípoli, Líbia

latitud: 32-54N, longitud: 13-17E, altitud: 11 m

METAR: manca

Hora: 22:13 (20:13 UTC)

Pronòstic

L'informe es va fer fa 3 hores i 13 minuts, a les 17:00 UTC
Pronòstic vàlid del 22 a les 18 UTC al 23 a les 18 UTC
Vent 12 kt del Nord/Nord-Oest
Visibilitat: 8000 m
Núvols disperses a una alçada de 2500 ft
Cel ennuvolat a una alçada de 7000 ft
Temporalment
l' 22 a les 18 UTC al 23 a les 18 UTC
Visibilitat: 5000 m
Cel ennuvolat a una alçada de 2000 ft
xàfecs de pluja

TAF: HLLM 221700Z 2218/2318 34012KT 8000 SCT025 BKN070 TEMPO 2218/2318 5000 SHRA BKN020

Observacions i pronòstics meteorològics de més de 4000 aeroports (METAR i TAF).

Les estacions disponibles són els punts grocs i vermells al mapa.

Posi el ratolí al punt desitjat per veure el nom de l'estació.

Feu clic per veure les observacions i els pronòstics meteorològics.

Per canviar el mapa: feu clic els botons verds amb una creu de color negre per apropar; al botó verd amb un guió per allunyar la imatge; o en les fletxes verdes per a mapes adjacents.


METAR-TAF: